Wesleyville, Canada
Current Conditions -  °F | °C
As of 4:10 PM on Monday 20 Oct 2014 (Local Time) from CYQX Reporting Station
Rain Showers Rain Showers  
Wind Chill: 52°   Ceiling: 2400
Heat Index: 52°   Visibility: 15mi
Dew Point: 50°   Wind: 26mph
Humidity: 94%   Direction: 210°SSW
Pressure: 29.34"   Gusts: 39mph
Location:  49.15°N, 53.58°W
Report Text: CYQX 201810Z 21023G34KT 15SM -SHRA FEW008 FEW017 BKN024 BKN042 11/10 A2934 RMK SF1CU1SC4SC1 PRESRR SLP938 DENSITY ALT 800FT
Loading
Personal Weather Stations






























Interactive Weather Map New forecast layout! Learn more

10-Day Weather Forecast

Advertisements
Track Severe Weather on mobile